Timeline UpdatesTrip UpdatesNews PostsPvt Posts♥♥Travel TipsAdmin PostsConv PostsFollowed PostsChat RequestsBlog PostsPNR Posts

Disclaimer
Search
 
 
Thu Nov 27, 2014 21:15:06 ISTHomeTrainsΣChainsAtlasPNRForumGalleryNewsFAQTripsMembersLoginFeedback
No Recent News for this Train
Other Trains in the News **new
Latest...
Temporary Augmentation of 1 SL coach from 5/4/14-28/6/14 #1043381
Wed Apr 02, 2014 (11:23PM)
⇐ Return Journey: Train# 15905

15906/Dibrugarh - Kanyakumari Vivek Express

Time-Table HAS CHANGED.
Nov 20 (7:29PM)
Change Departure Station:
Change Arrival Station:
Post a Train Travel TipPost a Train Travel Tip **new
Post a Comment/Question/Picture/VideoPost a Comment/Question/Picture/Video
Inaugural Run
Sat Nov 26, 2011
Pantry/Catering
✓ Pantry Car Avbl
✓ Catering Avbl
Loco/Rake Reversals
DGR/Durgapur (5); VSKP/Visakhapatnam Junction (8);
RSA - Rake Sharing
Rake/Coach Composition
LOCO-SLR-GS-GS-GS-B2-B1-A1-S9-PC-S8-S7-S6-S5-S4-S3-S2-S1-GS-GS-GS-SLR
Loco
Official Loco Links:- DBRG - DGR :- WDM-3A /3D DGR...
Read more...
- VSKP :- WAM-4/WAP-4 VSKP - CAPE :- WAM-4/WAP-4
News    PNR    Forum    Time-Table    Availability    Fare Chart    Map    Arr/Dep History    Trips    Gallery    ΣChains    X/O    Timeline    
Travel Time: 82h 5m    56 halts    Distance: 4236 km    Avg Speed: 51 km/hr
Type: Mail/Express
Zone: NFR/Northeast Frontier
Departs @ 23:45 (Avg 22m late)
Platform# 1
      S
Dibrugarh/DBRG 
Arrives @ 09:50 +4 nights (Avg 39m late)
Platform# ???
   W   
Kanniyakumari/CAPE 

56 halts. 681 intermediate Stations between Dibrugarh and Kanniyakumari

Show ALL intermediate Stations  Show Old Time-Table

#TrkCodeStation NameX/OArrivesAvgDepartsAvgHaltPFDay#KmSpeedElevZoneAddress
1|--|DBRGDibrugarh (4)»  -23:45+22110.042108mNFRDibrugarh 786003, Assam
2|--|NTSKNew Tinsukia Junction (3)  00:45+1900:55+2610m--242.057124mNFRDist: Tinsukia, Assam
3|--|MXNMariani Junction (4)  03:45 03:40+2903:55 03:50+2810m12198.743117mNFRDist. Jorhat Pin-785634, Assam
4|--|FKGFurkating Junction (2)  04:43+2704:45+272m--2236.750102mNFRK B Rd, Assam
5|--|DMVDimapur (3)  05:55 06:10+2106:00 06:15+275m--2306.957153mNFRDimapur, Nagaland
6|--|DPUDiphu (2)  06:36 06:54+3306:37 06:55+351m--2344.235180mNFRDiphu, Assam
7|-=!LMGLumding Junction (5)  08:05 07:50+2608:10 07:55+295m--2376.359142mNFRLumding, Assam
8|--|JIDJagi Road (2)  10:41 10:01+5110:42 10:02+521m--2500.03962mNFRJagiroad, Assam
9|==|GHYGuwahati (7)  12:00 11:30+2512:15 11:45+3415m--2557.17360mNFRGuwahati, Assam
10|--|GLPTGoalpara Town (2)  14:02 13:33+1:1514:04 13:35+1:172m--2687.73649mNFRGoalpara Town Rail Station, Assam
11|--|NBQNew Bongaigaon Junction (4)X  15:45 15:00+4515:50 15:10+455 10m--2739.16258mNFR783381., Assam
12|==|KOJKokrajhar (3)X  16:19 15:37+5416:20 15:38+551m--2767.07346mNFR03661-270618, Assam
13|--|APDJAlipur Duar Junction (3)  17:30 16:45+5817:35 16:50+1:025m--2848.23453mNFRDist - Alipurduar, West Bengal
14|--|NJPNew Jalpaiguri Junction (8)X  21:45+4822:00+1:2915m321016.679114mNFRCity-Siliguri . Dist-Jalpaiguri, West Bengal
15%==%KNEKishanGanj (3)X  23:06+1:5823:08+1:582m--21104.05252mNFRKishanganj, Bihar
16%==%MLDTMalda Town (5)X  02:00+1:4602:15+1:4515m--31252.15030mERDist - Malda, West Bengal
17%==%RPHRampurhat (3)  04:45+1:2404:50+1:245m131375.94341mERDIST - Birbhum, West Bengal
18/==/DGRDurgapur (5)XO07:35+1:0508:00+1:0525m131494.14671mERDurgapur, West Bengal
19/==/ASNAsansol Junction (7)  08:55+1:1209:05+1:1110m431536.645113mERDist - Bardhaman, West Bengal
20/--/ADRAAdra Junction (4)  10:00+3410:05+355m431578.171190mSERDist - Puruliya, West Bengal
21/==/BQABankura Junction (3)X  10:50+3110:52+322m--31631.09089mSERDist - Bankura, West Bengal
22/==/MDNMidnapore (3)  11:58 12:00+1:3912:00 12:02+1:392m--31733.51553mSERMedinipur, West Bengal
23/--/HIJHijli (2)  12:56+4612:57+521m331747.28548mSERdist - paschim medinipur, West Bengal
24/==/BLSBalasore (4)  14:16+2714:18+262m331859.46919mSERBalasore, Odisha
25/==/BHCBhadrak (4)  15:12+5415:14+542m--31921.98823mECoRBhadrak, Odisha
26%==/CTCCuttack Junction (5)  16:31 16:33+1:3316:33 16:35+1:392m--32037.54828mECoRCuttack, Odisha
27/==/BBSBhubaneswar (4)X  17:13 17:10+1:5517:18 17:15+1:555m432065.44540mECoRBhubaneshwar, Odisha
28/==/KURKhurda Road Junction (7)X  17:40+1:3517:55+1:3415m--32084.48025mECoRKhordha, Odisha
29/==/BAMBrahmapur (3)X  19:50 19:45+1:3219:55 19:50+1:325m232231.52727mECoRBerhampur, Odisha
30/==/PSAPalasa (3)X  22:33+2622:35+282m--32305.88331mECoRKasibugga, Andhra Pradesh
31/==/CHESrikakulam Road (4)  23:32 23:28+3023:34 23:30+312m--32378.87634mECoRsrikakulam road ph .no. 08942-287222, Andhra Pradesh
32/==/VZMVizianagaram Junction (5)X  00:30 00:25+3400:32 00:27+342m--42448.35863mECoRVizianagaram, Andhra Pradesh
33/==/VSKPVisakhapatnam Junction (8)X01:30+3001:50+3120m342509.53611mECoRVishakhapatnam 530001, Andhra Pradesh
34/==/DVDDuvvada (4)  02:18 02:17+3502:20 02:18+362 1m--42525.89246mECoRVishakhapatnam District, Andhra Pradesh
35/==/SLOSamalkot Junction (3)  03:46 03:45+1:0103:47+1:011 2m342659.16118mSCRSamalkot, Andhra Pradesh
36/==/RJYRajahmundry (3)  04:36+1:0604:38+1:072m142709.36723mSCRRajahmundry ph.no. 0883-2420541, Andhra Pradesh
37/==/EEEluru (3)X  05:59+5806:00+591m--42799.24519mSCREluru Ph.no. 08812 226401., Andhra Pradesh
38/==/BZAVijayawada Junction (10)X  07:20+1:0507:40+1:0220m--42858.67724mSCRVijayawada 520001, Andhra Pradesh
39/==/OGLOngole (3)  09:28+1:0809:29+1:091m342996.910812mSCROngole, Andhra Pradesh
40/==/NLRNellore (4)  10:34+5610:35+561m343113.63421mSCRNellore, Andhra Pradesh
41/==/RURenigunta Junction (5)X  14:10+3914:20+4210m--43235.569113mSCRChittoor District, Andhra Pradesh
42/==/KPDKatpadi Junction (5)X  16:08+5716:10+572m143359.950213mSRVellore 632007, Tamil Nadu
43/==/JTJJolarpettai Junction (5)X  17:50+4317:55+435m--43443.872405mSRJolarpettai, Tamil Nadu
44/==/SASalem Junction (6)X  19:35+4519:40+445m--43564.067283mSRSalem, Tamil Nadu
45/==/EDErode Junction (4)  20:35+4920:40+535m243625.370175mSRErode ph.no: 0424-2256111, Tamil Nadu
46/==/TUPTiruppur (2)X  21:23+5221:25+522m143675.647305mSRTiruppur. Ph:0421-2200450, Tamil Nadu
47/==/CBECoimbatore Main Junction (6)X  22:30+4022:35+415m--43726.038416mSRCoimbatore 641001, Tamil Nadu
48/==/PGTPalakkad Junction (4)X  00:02+2400:05+293m--53781.37084mSRPalghat Tel: 0491 2555231, Kerala
49/==/TCRThrissur (4)  01:07 01:10+2501:10 01:13+273m153857.1736mSRThrissur Tel: 0487 2423150, Kerala
50/==/AWYAluva (3)  02:03 01:58+4602:05 02:00+472m153911.83412mSRPh: 0484-2624141, Kerala
51/==/ERNErnakulam Town (North) (2)  02:35 02:30+3902:40 02:35+415m253928.6609mSRTel: 0484 2395198, Kerala
52%==%KTYMKottayam (3)X  03:40 03:35+1:0903:45 03:40+1:095m--53988.66715mSRTel: 0481 2563535, Kerala
53%==%TRVLTiruvalla (2) new halt!!04:03-04:04-1m--54014.24227mSRPh: 0469-2601314, Kerala
54/==%CNGRChengannur (3)  04:24 04:17+1:1704:25 04:18+1:191m154023.3596mSRPh: 0479-2452340, Kerala
55/==/QLNKollam Junction (6)  05:40 05:20+1:1505:45 05:25+1:175m154084.34116mSRKollam 0474-2746194, Kerala
56/==/TVCTrivandrum Central (5)  07:05 07:00+5707:15 07:10+1:0110m154149.03312mSRThiruvananthapuram 695001, Kerala
57/--/NCJNagercoil Junction (4)  09:25 09:20+4009:30 09:25+435m--54220.03722mSRNagercoil-629002, Tamil Nadu
58/--/CAPEKanniyakumari (3)•  10:00 09:50+39---54235.5-38mSRKanyakumari, Tamil Nadu
Scroll to Top
Scroll to Bottom